Time;durP1;ratioP1;P1;durP2;ratioP2;P2;SDS_P1;SDS_P2;PMS_P1;PMS_P2;Temp;Humidity;BMP_temperature;BMP_pressure;BME280_temperature;BME280_humidity;BME280_pressure;Samples;Min_cycle;Max_cycle;Signal;HPM_P1;HPM_P2
2023/04/10 00:01:21;;;;;;;104.40;29.60;;;;;;;-128.00;-1.00;-1.00;18857;285;7504468;-32
2023/04/10 00:03:47;;;;;;;112.30;29.60;;;;;;;-128.00;-1.00;-1.00;18465;296;7505058;-35
2023/04/10 00:06:13;;;;;;;71.80;29.90;;;;;;;-128.00;-1.00;-1.00;18511;296;7505346;-35
2023/04/10 00:08:38;;;;;;;67.70;29.60;;;;;;;-128.00;-1.00;-1.00;18453;285;7506408;-33
2023/04/10 00:11:05;;;;;;;77.50;30.80;;;;;;;-128.00;-1.00;-1.00;18881;289;7504515;-31
2023/04/10 00:13:31;;;;;;;202.50;37.50;;;;;;;-128.00;-1.00;-1.00;18878;289;7505151;-34
2023/04/10 00:15:57;;;;;;;90.10;35.50;;;;;;;-128.00;-1.00;-1.00;18872;296;7504632;-32
2023/04/10 00:18:24;;;;;;;75.10;30.80;;;;;;;-128.00;-1.00;-1.00;18852;305;7504785;-35
2023/04/10 00:20:49;;;;;;;72.80;22.50;;;;;;;-128.00;-1.00;-1.00;18473;296;7505238;-35
2023/04/10 00:23:15;;;;;;;80.60;28.00;;;;;;;-128.00;-1.00;-1.00;18478;289;7506236;-35
2023/04/10 00:25:41;;;;;;;85.00;31.00;;;;;;;-128.00;-1.00;-1.00;18454;285;7506045;-31
2023/04/10 00:28:07;;;;;;;100.00;29.60;;;;;;;-128.00;-1.00;-1.00;18883;289;7504918;-35
2023/04/10 00:30:33;;;;;;;90.70;33.10;;;;;;;-128.00;-1.00;-1.00;18870;296;7504416;-32
2023/04/10 00:33:00;;;;;;;64.70;27.00;;;;;;;-128.00;-1.00;-1.00;18854;297;7504539;-37
2023/04/10 00:35:26;;;;;;;64.20;25.70;;;;;;;-128.00;-1.00;-1.00;18836;299;7505178;-36
2023/04/10 00:37:55;;;;;;;62.40;26.60;;;;;;;-128.00;-1.00;-1.00;18472;296;7504674;-35
2023/04/10 00:40:20;;;;;;;65.80;25.90;;;;;;;-128.00;-1.00;-1.00;18464;296;7505294;-36
2023/04/10 00:42:46;;;;;;;31.70;14.80;;;;;;;-128.00;-1.00;-1.00;18439;289;7505589;-35
2023/04/10 00:45:12;;;;;;;36.30;12.30;;;;;;;-128.00;-1.00;-1.00;18462;285;7505595;-35
2023/04/10 00:47:39;;;;;;;57.70;22.80;;;;;;;-128.00;-1.00;-1.00;18885;285;7504980;-34
2023/04/10 00:50:05;;;;;;;52.20;24.50;;;;;;;-128.00;-1.00;-1.00;18483;296;7504550;-38
2023/04/10 00:52:31;;;;;;;67.50;28.50;;;;;;;-128.00;-1.00;-1.00;18476;289;7506022;-37
2023/04/10 00:54:57;;;;;;;45.60;18.00;;;;;;;-128.00;-1.00;-1.00;18444;299;7504176;-37
2023/04/10 00:57:23;;;;;;;56.40;21.70;;;;;;;-128.00;-1.00;-1.00;18474;297;7506923;-35
2023/04/10 00:59:50;;;;;;;56.80;21.40;;;;;;;-128.00;-1.00;-1.00;18467;297;7504493;-37
2023/04/10 01:02:17;;;;;;;118.00;31.30;;;;;;;-128.00;-1.00;-1.00;18469;336;7504791;-33
2023/04/10 01:04:42;;;;;;;53.00;23.60;;;;;;;-128.00;-1.00;-1.00;18464;296;7506224;-37
2023/04/10 01:07:16;;;;;;;110.80;27.80;;;;;;;-128.00;-1.00;-1.00;18454;296;7504459;-33
2023/04/10 01:10:03;;;;;;;148.90;29.80;;;;;;;-128.00;-1.00;-1.00;18467;348;7504991;-33
2023/04/10 01:12:46;;;;;;;70.50;31.30;;;;;;;-128.00;-1.00;-1.00;18462;348;7504261;-35
2023/04/10 01:15:15;;;;;;;82.10;28.40;;;;;;;-128.00;-1.00;-1.00;18469;296;7506654;-33
2023/04/10 01:17:45;;;;;;;55.40;21.50;;;;;;;-128.00;-1.00;-1.00;18454;297;7504655;-36
2023/04/10 01:20:20;;;;;;;68.80;27.90;;;;;;;-128.00;-1.00;-1.00;18479;332;7504705;-36
2023/04/10 01:23:10;;;;;;;55.40;19.50;;;;;;;-128.00;-1.00;-1.00;18474;297;7504797;-33
2023/04/10 01:25:39;;;;;;;33.50;17.20;;;;;;;-128.00;-1.00;-1.00;18460;297;7506135;-35
2023/04/10 01:28:20;;;;;;;70.20;27.40;;;;;;;-128.00;-1.00;-1.00;18477;285;7504488;-33
2023/04/10 01:30:51;;;;;;;61.30;26.00;;;;;;;-128.00;-1.00;-1.00;18483;297;7504746;-35
2023/04/10 01:33:20;;;;;;;59.50;24.50;;;;;;;-128.00;-1.00;-1.00;18457;285;7504335;-32
2023/04/10 01:35:48;;;;;;;79.20;26.90;;;;;;;-128.00;-1.00;-1.00;18475;296;7504324;-36
2023/04/10 01:38:15;;;;;;;60.60;29.10;;;;;;;-128.00;-1.00;-1.00;18446;298;7505315;-37
2023/04/10 01:40:41;;;;;;;91.10;26.70;;;;;;;-128.00;-1.00;-1.00;18466;285;7504978;-35
2023/04/10 01:43:07;;;;;;;70.20;28.80;;;;;;;-128.00;-1.00;-1.00;18449;289;7506263;-35
2023/04/10 01:45:32;;;;;;;69.20;27.40;;;;;;;-128.00;-1.00;-1.00;18472;289;7506255;-35
2023/04/10 01:47:59;;;;;;;63.50;24.30;;;;;;;-128.00;-1.00;-1.00;18853;285;7505071;-36
2023/04/10 01:50:26;;;;;;;55.00;22.90;;;;;;;-128.00;-1.00;-1.00;18450;297;7504350;-36
2023/04/10 01:52:52;;;;;;;42.80;20.40;;;;;;;-128.00;-1.00;-1.00;18502;285;7505184;-33
2023/04/10 01:55:19;;;;;;;40.30;18.70;;;;;;;-128.00;-1.00;-1.00;18441;297;7504883;-36
2023/04/10 01:57:47;;;;;;;60.70;26.10;;;;;;;-128.00;-1.00;-1.00;18470;285;7504863;-32
2023/04/10 02:00:15;;;;;;;53.40;25.10;;;;;;;-128.00;-1.00;-1.00;18460;289;7505795;-32
2023/04/10 02:02:41;;;;;;;55.10;26.90;;;;;;;-128.00;-1.00;-1.00;18465;297;7506220;-34
2023/04/10 02:05:09;;;;;;;54.70;24.20;;;;;;;-128.00;-1.00;-1.00;18469;320;7506204;-32
2023/04/10 02:07:59;;;;;;;55.10;24.50;;;;;;;-128.00;-1.00;-1.00;18471;289;7506454;-36
2023/04/10 02:10:30;;;;;;;53.10;26.50;;;;;;;-128.00;-1.00;-1.00;18464;289;7504878;-34
2023/04/10 02:13:00;;;;;;;54.10;25.20;;;;;;;-128.00;-1.00;-1.00;18453;299;7504741;-33
2023/04/10 02:15:27;;;;;;;47.30;22.50;;;;;;;-128.00;-1.00;-1.00;18479;297;7506195;-38
2023/04/10 02:17:53;;;;;;;63.50;24.60;;;;;;;-128.00;-1.00;-1.00;18470;289;7504458;-35
2023/04/10 02:20:18;;;;;;;94.20;28.20;;;;;;;-128.00;-1.00;-1.00;18452;297;7504971;-32
2023/04/10 02:22:45;;;;;;;85.10;29.70;;;;;;;-128.00;-1.00;-1.00;18890;297;7504824;-33
2023/04/10 02:25:11;;;;;;;63.10;25.90;;;;;;;-128.00;-1.00;-1.00;18468;289;7504605;-36
2023/04/10 02:27:37;;;;;;;91.90;27.60;;;;;;;-128.00;-1.00;-1.00;18430;297;7504844;-37
2023/04/10 02:30:03;;;;;;;93.80;29.70;;;;;;;-128.00;-1.00;-1.00;18459;297;7504596;-32
2023/04/10 02:32:30;;;;;;;50.30;25.20;;;;;;;-128.00;-1.00;-1.00;18469;296;7504799;-35
2023/04/10 02:34:55;;;;;;;52.90;22.20;;;;;;;-128.00;-1.00;-1.00;18478;285;7506080;-35
2023/04/10 02:37:22;;;;;;;49.60;22.10;;;;;;;-128.00;-1.00;-1.00;18473;297;7506652;-35
2023/04/10 02:39:48;;;;;;;52.20;22.40;;;;;;;-128.00;-1.00;-1.00;18460;341;7506225;-36
2023/04/10 02:42:13;;;;;;;55.40;29.90;;;;;;;-128.00;-1.00;-1.00;18502;285;7504863;-36
2023/04/10 02:44:40;;;;;;;80.00;26.70;;;;;;;-128.00;-1.00;-1.00;18443;297;7506011;-38
2023/04/10 02:47:06;;;;;;;58.90;24.90;;;;;;;-128.00;-1.00;-1.00;18472;308;7504642;-36
2023/04/10 02:49:33;;;;;;;57.40;23.00;;;;;;;-128.00;-1.00;-1.00;18449;341;7506128;-35
2023/04/10 02:52:00;;;;;;;73.30;29.50;;;;;;;-128.00;-1.00;-1.00;18457;297;7504868;-31
2023/04/10 02:54:26;;;;;;;59.60;23.20;;;;;;;-128.00;-1.00;-1.00;18472;337;7506621;-31
2023/04/10 02:56:52;;;;;;;30.20;11.80;;;;;;;-128.00;-1.00;-1.00;18442;299;7506316;-32
2023/04/10 02:59:18;;;;;;;77.50;28.10;;;;;;;-128.00;-1.00;-1.00;18847;285;7505148;-35
2023/04/10 03:01:45;;;;;;;66.50;28.50;;;;;;;-128.00;-1.00;-1.00;18850;325;7506059;-32
2023/04/10 03:04:11;;;;;;;45.80;18.70;;;;;;;-128.00;-1.00;-1.00;18471;297;7504639;-30
2023/04/10 03:06:37;;;;;;;123.30;22.40;;;;;;;-128.00;-1.00;-1.00;18471;289;7504656;-31
2023/04/10 03:09:03;;;;;;;47.60;24.00;;;;;;;-128.00;-1.00;-1.00;18872;348;7504377;-31
2023/04/10 03:11:29;;;;;;;61.60;26.20;;;;;;;-128.00;-1.00;-1.00;18861;337;7504756;-34
2023/04/10 03:13:57;;;;;;;56.30;22.90;;;;;;;-128.00;-1.00;-1.00;18850;289;7504824;-33
2023/04/10 03:16:23;;;;;;;60.40;25.20;;;;;;;-128.00;-1.00;-1.00;18463;297;7506769;-31
2023/04/10 03:18:48;;;;;;;70.70;27.60;;;;;;;-128.00;-1.00;-1.00;18460;285;7504883;-35
2023/04/10 03:21:15;;;;;;;89.50;27.80;;;;;;;-128.00;-1.00;-1.00;18840;296;7504782;-37
2023/04/10 03:23:41;;;;;;;64.10;24.50;;;;;;;-128.00;-1.00;-1.00;18843;298;7504684;-32
2023/04/10 03:26:07;;;;;;;83.60;28.70;;;;;;;-128.00;-1.00;-1.00;18876;348;7504417;-35
2023/04/10 03:28:35;;;;;;;81.50;26.00;;;;;;;-128.00;-1.00;-1.00;18855;289;7504483;-32
2023/04/10 03:31:02;;;;;;;55.50;20.90;;;;;;;-128.00;-1.00;-1.00;18454;285;7504972;-31
2023/04/10 03:33:27;;;;;;;89.80;22.70;;;;;;;-128.00;-1.00;-1.00;18465;289;7504940;-36
2023/04/10 03:35:53;;;;;;;97.70;27.30;;;;;;;-128.00;-1.00;-1.00;18480;297;7504318;-36
2023/04/10 03:38:19;;;;;;;85.40;27.90;;;;;;;-128.00;-1.00;-1.00;18458;337;7504883;-32
2023/04/10 03:40:44;;;;;;;89.50;28.80;;;;;;;-128.00;-1.00;-1.00;18484;296;7507128;-31
2023/04/10 03:43:10;;;;;;;49.70;24.00;;;;;;;-128.00;-1.00;-1.00;18839;285;7505076;-32
2023/04/10 03:45:36;;;;;;;75.90;28.20;;;;;;;-128.00;-1.00;-1.00;18871;285;7504967;-32
2023/04/10 03:48:03;;;;;;;111.30;31.00;;;;;;;-128.00;-1.00;-1.00;18862;285;7505210;-32
2023/04/10 03:50:29;;;;;;;79.30;27.90;;;;;;;-128.00;-1.00;-1.00;18883;337;7505324;-31
2023/04/10 03:52:55;;;;;;;41.00;20.00;;;;;;;-128.00;-1.00;-1.00;18466;297;7505815;-35
2023/04/10 03:55:21;;;;;;;83.80;23.10;;;;;;;-128.00;-1.00;-1.00;18461;297;7504635;-35
2023/04/10 03:57:47;;;;;;;45.30;20.90;;;;;;;-128.00;-1.00;-1.00;18452;297;7504619;-32
2023/04/10 04:00:16;;;;;;;66.60;19.40;;;;;;;-128.00;-1.00;-1.00;18461;296;7504835;-35
2023/04/10 04:02:43;;;;;;;59.50;19.00;;;;;;;-128.00;-1.00;-1.00;18479;297;7505683;-35
2023/04/10 04:05:09;;;;;;;71.00;27.80;;;;;;;-128.00;-1.00;-1.00;18852;297;7504971;-32
2023/04/10 04:07:35;;;;;;;92.90;30.00;;;;;;;-128.00;-1.00;-1.00;18869;285;7505335;-32
2023/04/10 04:10:01;;;;;;;98.60;31.40;;;;;;;-128.00;-1.00;-1.00;18855;297;7505257;-34
2023/04/10 04:12:27;;;;;;;106.00;31.40;;;;;;;-128.00;-1.00;-1.00;18848;298;7504811;-32
2023/04/10 04:14:54;;;;;;;66.50;26.20;;;;;;;-128.00;-1.00;-1.00;18879;289;7504928;-35
2023/04/10 04:17:20;;;;;;;63.70;29.00;;;;;;;-128.00;-1.00;-1.00;18900;309;7505235;-34
2023/04/10 04:19:46;;;;;;;77.80;24.70;;;;;;;-128.00;-1.00;-1.00;18496;289;7504182;-35
2023/04/10 04:22:12;;;;;;;35.50;19.50;;;;;;;-128.00;-1.00;-1.00;18459;348;7504711;-35
2023/04/10 04:24:38;;;;;;;53.20;25.50;;;;;;;-128.00;-1.00;-1.00;18472;297;7506116;-31
2023/04/10 04:27:04;;;;;;;82.60;32.40;;;;;;;-128.00;-1.00;-1.00;18869;305;7505318;-31
2023/04/10 04:29:30;;;;;;;52.40;23.00;;;;;;;-128.00;-1.00;-1.00;18488;297;7505578;-31
2023/04/10 04:31:56;;;;;;;39.00;18.90;;;;;;;-128.00;-1.00;-1.00;18481;289;7506014;-34
2023/04/10 04:34:22;;;;;;;57.40;27.30;;;;;;;-128.00;-1.00;-1.00;18859;289;7504171;-34
2023/04/10 05:14:54;;;;;;;184.10;71.50;;;;;;;-101.37;19.20;20062.54;19590;296;8044551;-34
2023/04/10 05:17:20;;;;;;;138.70;64.50;;;;;;;-128.00;-1.00;-1.00;18094;313;7506188;-31
2023/04/10 05:19:46;;;;;;;89.90;40.00;;;;;;;-128.00;-1.00;-1.00;18490;342;7505933;-35
2023/04/10 05:22:12;;;;;;;90.60;42.30;;;;;;;-128.00;-1.00;-1.00;18885;289;7504125;-35
2023/04/10 05:24:38;;;;;;;66.00;34.80;;;;;;;-128.00;-1.00;-1.00;18857;296;7505267;-36
2023/04/10 05:27:05;;;;;;;52.00;27.10;;;;;;;-128.00;-1.00;-1.00;18872;297;7504619;-34
2023/04/10 05:29:31;;;;;;;72.40;28.80;;;;;;;-128.00;-1.00;-1.00;18872;285;7505065;-34
2023/04/10 05:31:57;;;;;;;61.40;29.30;;;;;;;-128.00;-1.00;-1.00;18883;297;7505125;-34
2023/04/10 05:34:23;;;;;;;53.70;24.90;;;;;;;-128.00;-1.00;-1.00;18897;297;7504844;-35
2023/04/10 05:36:49;;;;;;;67.00;27.00;;;;;;;-128.00;-1.00;-1.00;18869;285;7504712;-36
2023/04/10 05:39:16;;;;;;;74.30;30.10;;;;;;;-128.00;-1.00;-1.00;18892;285;7504342;-32
2023/04/10 05:41:42;;;;;;;70.80;29.80;;;;;;;-128.00;-1.00;-1.00;18883;289;7504392;-33
2023/04/10 05:44:08;;;;;;;76.50;31.30;;;;;;;-128.00;-1.00;-1.00;18849;297;7504404;-36
2023/04/10 05:46:34;;;;;;;73.70;29.00;;;;;;;-128.00;-1.00;-1.00;18878;297;7505726;-36
2023/04/10 05:49:00;;;;;;;63.40;26.90;;;;;;;-128.00;-1.00;-1.00;18872;297;7504379;-32
2023/04/10 05:51:27;;;;;;;75.70;31.30;;;;;;;-128.00;-1.00;-1.00;18878;285;7504915;-31
2023/04/10 05:53:53;;;;;;;67.90;26.50;;;;;;;-128.00;-1.00;-1.00;18499;289;7504806;-35
2023/04/10 05:56:19;;;;;;;59.50;23.80;;;;;;;-128.00;-1.00;-1.00;18447;348;7506088;-35
2023/04/10 05:58:45;;;;;;;79.20;31.60;;;;;;;-128.00;-1.00;-1.00;18457;289;7505172;-32
2023/04/10 06:01:12;;;;;;;73.80;31.40;;;;;;;-128.00;-1.00;-1.00;18875;297;7504418;-32
2023/04/10 06:03:38;;;;;;;65.20;27.50;;;;;;;-128.00;-1.00;-1.00;18460;297;7506293;-31
2023/04/10 06:06:04;;;;;;;90.20;33.50;;;;;;;-128.00;-1.00;-1.00;18469;297;7505537;-36
2023/04/10 06:08:29;;;;;;;80.60;33.00;;;;;;;-128.00;-1.00;-1.00;18458;297;7504709;-34
2023/04/10 06:10:56;;;;;;;92.80;33.20;;;;;;;-128.00;-1.00;-1.00;18913;348;7505026;-34
2023/04/10 06:13:23;;;;;;;78.60;31.70;;;;;;;-128.00;-1.00;-1.00;18861;297;7504794;-35
2023/04/10 06:15:48;;;;;;;78.30;32.00;;;;;;;-128.00;-1.00;-1.00;18499;345;7504689;-36
2023/04/10 06:18:15;;;;;;;54.00;24.20;;;;;;;-128.00;-1.00;-1.00;18467;297;7505250;-35
2023/04/10 06:20:40;;;;;;;68.60;27.80;;;;;;;-128.00;-1.00;-1.00;18503;285;7504441;-35
2023/04/10 06:23:07;;;;;;;68.60;30.00;;;;;;;-128.00;-1.00;-1.00;18878;289;7505473;-35
2023/04/10 06:25:33;;;;;;;82.00;32.80;;;;;;;-128.00;-1.00;-1.00;18862;285;7504489;-34
2023/04/10 06:27:59;;;;;;;66.60;25.10;;;;;;;-128.00;-1.00;-1.00;18859;285;7505273;-31
2023/04/10 06:30:25;;;;;;;66.30;27.60;;;;;;;-128.00;-1.00;-1.00;18903;296;7505206;-31
2023/04/10 06:32:52;;;;;;;63.50;26.70;;;;;;;-128.00;-1.00;-1.00;18888;285;7504362;-34
2023/04/10 06:35:18;;;;;;;72.30;28.20;;;;;;;-128.00;-1.00;-1.00;18878;289;7505723;-37
2023/04/10 06:37:44;;;;;;;73.10;30.00;;;;;;;-128.00;-1.00;-1.00;18857;349;7504409;-32
2023/04/10 06:40:12;;;;;;;81.90;32.20;;;;;;;-128.00;-1.00;-1.00;18862;348;7504443;-36
2023/04/10 06:42:38;;;;;;;64.40;29.50;;;;;;;-128.00;-1.00;-1.00;18476;331;7504662;-32
2023/04/10 06:45:04;;;;;;;69.80;30.60;;;;;;;-128.00;-1.00;-1.00;18888;297;7504963;-31
2023/04/10 06:47:33;;;;;;;48.70;23.50;;;;;;;-128.00;-1.00;-1.00;18462;345;7505798;-33
2023/04/10 06:49:59;;;;;;;55.60;24.70;;;;;;;-128.00;-1.00;-1.00;18452;296;7504369;-32
2023/04/10 06:52:24;;;;;;;63.40;24.80;;;;;;;-128.00;-1.00;-1.00;18467;296;7504407;-32
2023/04/10 06:54:50;;;;;;;59.60;27.40;;;;;;;-128.00;-1.00;-1.00;18456;296;7505175;-32
2023/04/10 06:57:17;;;;;;;67.10;29.00;;;;;;;-128.00;-1.00;-1.00;18894;316;7505097;-35
2023/04/10 06:59:43;;;;;;;64.90;25.90;;;;;;;-128.00;-1.00;-1.00;18468;297;7504319;-37
2023/04/10 07:02:09;;;;;;;51.70;25.40;;;;;;;-128.00;-1.00;-1.00;18480;320;7505768;-33
2023/04/10 07:04:35;;;;;;;64.60;28.00;;;;;;;-128.00;-1.00;-1.00;18871;285;7505121;-38
2023/04/10 07:07:02;;;;;;;62.10;28.20;;;;;;;-128.00;-1.00;-1.00;18875;297;7504695;-34
2023/04/10 07:09:29;;;;;;;56.20;24.20;;;;;;;-128.00;-1.00;-1.00;18475;297;7504518;-38
2023/04/10 07:11:55;;;;;;;51.70;24.40;;;;;;;-128.00;-1.00;-1.00;18472;285;7504509;-31
2023/04/10 07:14:21;;;;;;;52.30;24.10;;;;;;;-128.00;-1.00;-1.00;18461;285;7504874;-31
2023/04/10 07:16:48;;;;;;;46.80;24.00;;;;;;;-128.00;-1.00;-1.00;18465;297;7505881;-38
2023/04/10 07:19:14;;;;;;;60.10;25.70;;;;;;;-128.00;-1.00;-1.00;18433;298;7505398;-33
2023/04/10 07:21:40;;;;;;;45.00;24.00;;;;;;;-128.00;-1.00;-1.00;18467;296;7504124;-33
2023/04/10 07:24:06;;;;;;;32.10;18.90;;;;;;;-128.00;-1.00;-1.00;18472;285;7505960;-36
2023/04/10 07:26:32;;;;;;;47.70;23.20;;;;;;;-128.00;-1.00;-1.00;18462;298;7504729;-30
2023/04/10 07:28:58;;;;;;;58.90;28.00;;;;;;;-128.00;-1.00;-1.00;18857;296;7505500;-34
2023/04/10 07:31:24;;;;;;;57.20;27.70;;;;;;;-128.00;-1.00;-1.00;18860;348;7504271;-35
2023/04/10 07:33:50;;;;;;;40.80;20.20;;;;;;;-128.00;-1.00;-1.00;18862;297;7504519;-32
2023/04/10 07:36:16;;;;;;;68.60;31.20;;;;;;;-128.00;-1.00;-1.00;18885;348;7504869;-34
2023/04/10 07:38:43;;;;;;;51.40;25.80;;;;;;;-128.00;-1.00;-1.00;18897;285;7505443;-31
2023/04/10 07:41:10;;;;;;;60.80;29.60;;;;;;;-128.00;-1.00;-1.00;18864;297;7505244;-32
2023/04/10 07:43:36;;;;;;;41.70;22.40;;;;;;;-128.00;-1.00;-1.00;18438;297;7506488;-35
2023/04/10 07:46:02;;;;;;;43.00;19.10;;;;;;;-128.00;-1.00;-1.00;18464;337;7505731;-32
2023/04/10 07:48:28;;;;;;;66.20;28.00;;;;;;;-128.00;-1.00;-1.00;18867;297;7504371;-34
2023/04/10 07:50:54;;;;;;;58.00;29.70;;;;;;;-128.00;-1.00;-1.00;18854;285;7505517;-34
2023/04/10 07:53:20;;;;;;;48.40;23.40;;;;;;;-128.00;-1.00;-1.00;18871;285;7504968;-34
2023/04/10 07:55:48;;;;;;;45.50;24.30;;;;;;;-128.00;-1.00;-1.00;18844;348;7504723;-31
2023/04/10 07:58:15;;;;;;;46.40;24.40;;;;;;;-128.00;-1.00;-1.00;18447;297;7506097;-36
2023/04/10 08:00:41;;;;;;;46.90;23.50;;;;;;;-128.00;-1.00;-1.00;18463;296;7506461;-35
2023/04/10 08:03:06;;;;;;;45.90;25.00;;;;;;;-128.00;-1.00;-1.00;18461;348;7504319;-36
2023/04/10 08:05:32;;;;;;;49.10;26.20;;;;;;;-128.00;-1.00;-1.00;18455;285;7506662;-35
2023/04/10 08:07:58;;;;;;;42.60;22.70;;;;;;;-128.00;-1.00;-1.00;18470;285;7506397;-32
2023/04/10 08:10:24;;;;;;;33.30;20.90;;;;;;;-128.00;-1.00;-1.00;18450;285;7504908;-32
2023/04/10 08:12:50;;;;;;;28.10;15.80;;;;;;;-128.00;-1.00;-1.00;18466;297;7504681;-30
2023/04/10 08:15:16;;;;;;;34.00;14.70;;;;;;;-128.00;-1.00;-1.00;18455;309;7505166;-34
2023/04/10 08:17:42;;;;;;;39.70;23.80;;;;;;;-128.00;-1.00;-1.00;18451;297;7506467;-34
2023/04/10 08:20:10;;;;;;;38.40;22.00;;;;;;;-128.00;-1.00;-1.00;18467;296;7504234;-34
2023/04/10 08:22:36;;;;;;;44.00;23.30;;;;;;;-128.00;-1.00;-1.00;18476;297;7504621;-36
2023/04/10 08:25:02;;;;;;;41.00;23.90;;;;;;;-128.00;-1.00;-1.00;18448;341;7505331;-38
2023/04/10 08:27:29;;;;;;;47.80;25.10;;;;;;;-128.00;-1.00;-1.00;18469;297;7505021;-32
2023/04/10 08:29:55;;;;;;;47.80;23.40;;;;;;;-128.00;-1.00;-1.00;18465;313;7506190;-35
2023/04/10 08:32:21;;;;;;;47.00;21.50;;;;;;;-128.00;-1.00;-1.00;18472;341;7504647;-35
2023/04/10 08:34:48;;;;;;;44.30;25.00;;;;;;;-128.00;-1.00;-1.00;18463;296;7504636;-32
2023/04/10 08:37:14;;;;;;;36.50;21.70;;;;;;;-128.00;-1.00;-1.00;18449;297;7506794;-32
2023/04/10 08:39:40;;;;;;;43.50;24.00;;;;;;;-128.00;-1.00;-1.00;18467;296;7505969;-31
2023/04/10 08:42:06;;;;;;;40.10;21.70;;;;;;;-128.00;-1.00;-1.00;18448;285;7507568;-33
2023/04/10 08:44:31;;;;;;;38.20;18.50;;;;;;;-128.00;-1.00;-1.00;18465;296;7505211;-35
2023/04/10 08:46:58;;;;;;;39.80;22.50;;;;;;;-128.00;-1.00;-1.00;18459;297;7506797;-31
2023/04/10 08:49:30;;;;;;;41.20;23.20;;;;;;;-128.00;-1.00;-1.00;18474;308;7504479;-32
2023/04/10 08:51:57;;;;;;;32.40;18.80;;;;;;;-128.00;-1.00;-1.00;18466;316;7504755;-31
2023/04/10 08:54:31;;;;;;;38.60;20.20;;;;;;;-128.00;-1.00;-1.00;18477;309;7505177;-35
2023/04/10 08:56:57;;;;;;;32.20;16.10;;;;;;;-128.00;-1.00;-1.00;18467;297;7505610;-35
2023/04/10 08:59:23;;;;;;;40.20;22.70;;;;;;;-128.00;-1.00;-1.00;18473;341;7505011;-35
2023/04/10 09:01:48;;;;;;;42.10;22.60;;;;;;;-128.00;-1.00;-1.00;18441;299;7504173;-35
2023/04/10 09:04:16;;;;;;;53.00;26.10;;;;;;;-128.00;-1.00;-1.00;18475;297;7504632;-31
2023/04/10 09:06:43;;;;;;;62.10;28.70;;;;;;;-128.00;-1.00;-1.00;18446;297;7505467;-32
2023/04/10 09:09:09;;;;;;;87.80;31.10;;;;;;;-128.00;-1.00;-1.00;18866;297;7504952;-35
2023/04/10 09:11:54;;;;;;;39.00;23.50;;;;;;;-128.00;-1.00;-1.00;18862;341;7504532;-35
2023/04/10 09:14:21;;;;;;;52.60;27.70;;;;;;;-128.00;-1.00;-1.00;18446;297;7504576;-32
2023/04/10 09:16:47;;;;;;;45.40;21.20;;;;;;;-128.00;-1.00;-1.00;18458;296;7505034;-31
2023/04/10 09:19:13;;;;;;;57.30;25.30;;;;;;;-128.00;-1.00;-1.00;18456;308;7504401;-36
2023/04/10 09:21:39;;;;;;;40.00;21.90;;;;;;;-128.00;-1.00;-1.00;18473;348;7504749;-31
2023/04/10 09:24:05;;;;;;;50.50;24.40;;;;;;;-128.00;-1.00;-1.00;18483;285;7506043;-32
2023/04/10 09:26:32;;;;;;;32.70;18.40;;;;;;;-128.00;-1.00;-1.00;18864;297;7504910;-34
2023/04/10 09:29:01;;;;;;;64.60;27.70;;;;;;;-128.00;-1.00;-1.00;18452;297;7505354;-31
2023/04/10 09:31:41;;;;;;;44.20;19.80;;;;;;;-128.00;-1.00;-1.00;18481;320;7504392;-39
2023/04/10 09:34:13;;;;;;;46.10;23.80;;;;;;;-128.00;-1.00;-1.00;18461;349;7506017;-36
2023/04/10 09:36:40;;;;;;;55.30;29.80;;;;;;;-128.00;-1.00;-1.00;18504;296;7504533;-36
2023/04/10 09:39:07;;;;;;;34.60;19.10;;;;;;;-128.00;-1.00;-1.00;18424;343;7504822;-31
2023/04/10 09:41:33;;;;;;;32.30;18.40;;;;;;;-128.00;-1.00;-1.00;18449;349;7505266;-35
2023/04/10 09:44:05;;;;;;;38.40;21.30;;;;;;;-128.00;-1.00;-1.00;18880;312;7504694;-32
2023/04/10 09:46:31;;;;;;;21.30;13.70;;;;;;;-128.00;-1.00;-1.00;18488;297;7504574;-31
2023/04/10 09:48:59;;;;;;;37.20;21.00;;;;;;;-128.00;-1.00;-1.00;18867;297;7505128;-35
2023/04/10 09:51:35;;;;;;;37.00;20.10;;;;;;;-128.00;-1.00;-1.00;18457;342;7504377;-32
2023/04/10 09:54:04;;;;;;;31.30;18.20;;;;;;;-128.00;-1.00;-1.00;18462;299;7504314;-32
2023/04/10 09:56:30;;;;;;;25.00;16.50;;;;;;;-128.00;-1.00;-1.00;18447;297;7506128;-35
2023/04/10 09:58:58;;;;;;;23.60;17.80;;;;;;;-128.00;-1.00;-1.00;18858;296;7504829;-32
2023/04/10 10:01:27;;;;;;;28.90;16.60;;;;;;;-128.00;-1.00;-1.00;18468;297;7506126;-32
2023/04/10 10:03:53;;;;;;;23.60;16.20;;;;;;;-128.00;-1.00;-1.00;18492;285;7504756;-36
2023/04/10 10:06:19;;;;;;;30.00;17.70;;;;;;;-128.00;-1.00;-1.00;18468;289;7504856;-33
2023/04/10 10:08:44;;;;;;;26.00;17.80;;;;;;;-128.00;-1.00;-1.00;18467;338;7505078;-33
2023/04/10 10:11:11;;;;;;;26.00;16.60;;;;;;;-128.00;-1.00;-1.00;18882;297;7504379;-35
2023/04/10 10:13:52;;;;;;;29.20;17.40;;;;;;;-128.00;-1.00;-1.00;18884;337;7506177;-35
2023/04/10 10:16:21;;;;;;;22.90;16.90;;;;;;;-128.00;-1.00;-1.00;18461;285;7505003;-36
2023/04/10 10:18:53;;;;;;;25.50;15.60;;;;;;;-128.00;-1.00;-1.00;18480;285;7504290;-36
2023/04/10 10:21:19;;;;;;;25.80;16.70;;;;;;;-128.00;-1.00;-1.00;18467;297;7505882;-36
2023/04/10 10:23:45;;;;;;;26.10;16.50;;;;;;;-128.00;-1.00;-1.00;18467;297;7504957;-36
2023/04/10 10:26:10;;;;;;;26.20;16.80;;;;;;;-128.00;-1.00;-1.00;18477;285;7504769;-33
2023/04/10 10:28:37;;;;;;;29.80;20.00;;;;;;;-128.00;-1.00;-1.00;18904;297;7504314;-36
2023/04/10 10:31:03;;;;;;;22.00;15.30;;;;;;;-128.00;-1.00;-1.00;18875;285;7504367;-32
2023/04/10 10:33:30;;;;;;;23.20;16.30;;;;;;;-128.00;-1.00;-1.00;18875;297;7505011;-33
2023/04/10 10:35:59;;;;;;;20.50;14.90;;;;;;;-128.00;-1.00;-1.00;18478;285;7506076;-34
2023/04/10 10:38:26;;;;;;;24.30;15.20;;;;;;;-128.00;-1.00;-1.00;18471;300;7504100;-34
2023/04/10 10:41:12;;;;;;;19.00;12.80;;;;;;;-128.00;-1.00;-1.00;18484;296;7506067;-31
2023/04/10 10:43:52;;;;;;;27.60;18.00;;;;;;;-128.00;-1.00;-1.00;18439;297;7505321;-36
2023/04/10 10:46:42;;;;;;;17.60;13.10;;;;;;;-128.00;-1.00;-1.00;18470;289;7504635;-35
2023/04/10 10:49:07;;;;;;;25.50;14.20;;;;;;;-128.00;-1.00;-1.00;18442;297;7506871;-35
2023/04/10 10:51:46;;;;;;;18.40;14.20;;;;;;;-128.00;-1.00;-1.00;18866;297;7504359;-33
2023/04/10 10:54:28;;;;;;;22.70;14.40;;;;;;;-128.00;-1.00;-1.00;18478;297;7506535;-35
2023/04/10 10:56:54;;;;;;;22.00;12.70;;;;;;;-128.00;-1.00;-1.00;18471;288;7504468;-32
2023/04/10 10:59:51;;;;;;;23.60;16.80;;;;;;;-128.00;-1.00;-1.00;18479;289;7506079;-36
2023/04/10 11:02:18;;;;;;;21.90;14.20;;;;;;;-128.00;-1.00;-1.00;18471;296;7504232;-36
2023/04/10 11:44:27;;;;;;;21.70;14.90;;;;;;;-99.78;15.78;20038.75;79767;297;3003413;-35
2023/04/10 11:46:53;;;;;;;26.10;15.30;;;;;;;-128.00;-1.00;-1.00;18734;297;7505201;-32
2023/04/10 11:49:21;;;;;;;23.40;14.80;;;;;;;-128.00;-1.00;-1.00;18896;285;7504728;-32
2023/04/10 11:51:47;;;;;;;16.40;11.40;;;;;;;-128.00;-1.00;-1.00;18487;297;7505700;-32
2023/04/10 11:54:28;;;;;;;41.70;18.50;;;;;;;-128.00;-1.00;-1.00;18494;295;7504551;-32
2023/04/10 11:57:06;;;;;;;27.40;11.80;;;;;;;-128.00;-1.00;-1.00;18480;307;7505428;-34
2023/04/10 11:59:32;;;;;;;24.40;13.90;;;;;;;-128.00;-1.00;-1.00;18500;295;7504527;-35
2023/04/10 12:02:08;;;;;;;30.70;17.70;;;;;;;-128.00;-1.00;-1.00;18499;347;7505825;-35
2023/04/10 12:04:34;;;;;;;20.80;13.20;;;;;;;-128.00;-1.00;-1.00;18464;299;7506456;-36
2023/04/10 12:07:00;;;;;;;20.80;14.00;;;;;;;-128.00;-1.00;-1.00;18475;318;7504897;-36
2023/04/10 12:09:26;;;;;;;26.40;16.60;;;;;;;-128.00;-1.00;-1.00;18484;295;7506376;-36
2023/04/10 12:11:55;;;;;;;16.00;10.70;;;;;;;-128.00;-1.00;-1.00;18478;287;7505485;-35
2023/04/10 12:14:22;;;;;;;28.50;14.90;;;;;;;-128.00;-1.00;-1.00;18500;295;7504852;-32
2023/04/10 12:16:48;;;;;;;17.30;11.40;;;;;;;-128.00;-1.00;-1.00;18467;295;7504153;-33
2023/04/10 12:19:15;;;;;;;15.30;11.50;;;;;;;-128.00;-1.00;-1.00;18466;295;7506183;-35
2023/04/10 12:21:42;;;;;;;16.50;11.70;;;;;;;-128.00;-1.00;-1.00;18471;347;7504495;-35
2023/04/10 12:24:08;;;;;;;22.10;13.30;;;;;;;-128.00;-1.00;-1.00;18472;295;7504446;-35
2023/04/10 12:26:33;;;;;;;15.60;13.00;;;;;;;-128.00;-1.00;-1.00;18480;303;7504351;-37
2023/04/10 12:28:59;;;;;;;14.90;10.40;;;;;;;-128.00;-1.00;-1.00;18485;295;7504937;-35
2023/04/10 12:31:32;;;;;;;22.60;12.80;;;;;;;-128.00;-1.00;-1.00;18471;297;7505045;-36
2023/04/10 12:33:58;;;;;;;21.60;13.50;;;;;;;-128.00;-1.00;-1.00;18452;295;7504739;-31
2023/04/10 12:36:27;;;;;;;17.10;13.40;;;;;;;-128.00;-1.00;-1.00;18501;295;7505045;-36